To NAV CANADA Home Page Login to a new session Search on AWWS site Feedback and Comments Disclaimer Vers la page française équivalente Tips FAQ What's new on the site To the Forecasts and Observations / NOTAM section To "File a Flight Plan" website Publications and other links Update of the User's profile FIC Telephone Numbers My Weather Data Folder Route Weather Data Regional Weather Data Local Weather Data To the Forecasts and Observations / NOTAM section
Request Generated 02/27/2015 at 03:59:12 UTC . Weather information available at that time is displayed.

METAR/TAF

VANCOUVER/VANCOUVER INTL/BC    

METAR CYVR 270300Z 06005KT 15SM -RA FEW035 BKN047 OVC068 09/06 A2995
RMK SC1SC6AC1 SLP143=
SPECI CYVR 270220Z 08005KT 15SM -RA FEW035 BKN044 OVC068 09/06 A2997
RMK SC1SC6AC1 SLP147=
METAR CYVR 270200Z 10005KT 15SM FEW036 BKN045 BKN066 OVC080 09/06
A2997 RMK SC1SC4AC2AC1 SLP150=
METAR CYVR 270100Z 11006KT 15SM FEW020 FEW035 SCT062 OVC078 09/06
A2999 RMK SC1SC1SC2AC4 SLP156=

TAF CYVR 270238Z 2703/2806 12005KT P6SM -RA SCT020 OVC040 TEMPO
2704/2713 BKN020
FM271300 VRB03KT P6SM SCT050
FM272100 29012KT P6SM FEW080
FM280300 09005KT P6SM SKC
RMK NXT FCST BY 270600Z=
Your time UTC time
Weather data provided by Environment Canada and NAV CANADA